Au Train, Michigan
Current Conditions -  °F | °C
As of 8:45 AM on Friday 31 Oct 2014 (Local Time) from KSAW Reporting Station
Light Snow Light Snow  
Wind Chill: 13°   Ceiling: 600
Heat Index: 28°   Visibility: 2mi
Dew Point: 25°   Wind: 30mph
Humidity: 86%   Direction: 360°N
Pressure: 30.24"   Gusts: 37mph
Location:  46.43°N, 86.84°W
Report Text: KSAW 311245Z 36026G32KT 2SM -SN BKN006 BKN013 OVC021 M02/M04 A3024
Loading
Personal Weather Stations






























Interactive Weather Map
Tropical Storm Tracking
New forecast layout! Learn more

10-Day Weather Forecast

Advertisements
Track Severe Weather on mobile